Time;durP1;ratioP1;P1;durP2;ratioP2;P2;SDS_P1;SDS_P2;PMS_P1;PMS_P2;Temp;Humidity;BMP_temperature;BMP_pressure;BME280_temperature;BME280_humidity;BME280_pressure;Samples;Min_cycle;Max_cycle;Signal;HPM_P1;HPM_P2
2023/12/30 00:00:50;;;;;;;4.25;1.10;;;;;;;;;;5135089;27;20058;-68
2023/12/30 00:03:16;;;;;;;2.10;1.00;;;;;;;;;;5135040;27;20055;-68
2023/12/30 00:05:42;;;;;;;2.78;1.10;;;;;;;;;;5135014;27;20023;-67
2023/12/30 00:08:08;;;;;;;1.98;0.90;;;;;;;;;;5135136;27;20023;-68
2023/12/30 00:10:33;;;;;;;3.58;0.90;;;;;;;;;;5135258;27;20015;-68
2023/12/30 00:13:02;;;;;;;2.85;1.08;;;;;;;;;;5135117;27;20519;-68
2023/12/30 00:15:27;;;;;;;1.75;1.02;;;;;;;;;;5116505;27;20026;-67
2023/12/30 00:17:53;;;;;;;1.95;0.98;;;;;;;;;;5134562;27;20023;-67
2023/12/30 00:20:19;;;;;;;2.78;0.98;;;;;;;;;;5133766;27;20070;-68
2023/12/30 00:22:44;;;;;;;3.90;1.55;;;;;;;;;;5134798;27;20443;-68
2023/12/30 00:25:10;;;;;;;2.53;1.20;;;;;;;;;;5134616;27;20098;-68
2023/12/30 00:27:35;;;;;;;2.42;1.00;;;;;;;;;;5116388;27;20070;-67
2023/12/30 00:30:01;;;;;;;3.10;1.08;;;;;;;;;;5116347;27;20035;-67
2023/12/30 00:32:27;;;;;;;1.55;0.90;;;;;;;;;;5134452;27;20103;-67
2023/12/30 00:34:52;;;;;;;2.38;1.13;;;;;;;;;;5134538;27;20114;-67
2023/12/30 00:37:21;;;;;;;3.67;1.17;;;;;;;;;;5134425;27;20067;-67
2023/12/30 00:39:47;;;;;;;1.30;0.90;;;;;;;;;;5134084;27;20019;-68
2023/12/30 00:42:12;;;;;;;2.72;1.10;;;;;;;;;;5133687;27;20034;-68
2023/12/30 00:44:38;;;;;;;3.13;0.90;;;;;;;;;;5134215;27;20015;-67
2023/12/30 00:47:04;;;;;;;1.92;0.85;;;;;;;;;;5134000;27;20134;-68
2023/12/30 00:49:29;;;;;;;1.58;0.80;;;;;;;;;;5134266;27;20373;-68
2023/12/30 00:51:54;;;;;;;2.28;0.80;;;;;;;;;;5134226;27;20027;-68
2023/12/30 00:54:20;;;;;;;3.58;1.10;;;;;;;;;;5133705;27;20179;-67
2023/12/30 00:56:46;;;;;;;1.25;0.82;;;;;;;;;;5131641;27;20099;-68
2023/12/30 00:59:11;;;;;;;3.05;1.48;;;;;;;;;;5133546;27;20035;-68
2023/12/30 01:01:37;;;;;;;2.20;0.80;;;;;;;;;;5133286;27;20007;-68
2023/12/30 01:04:03;;;;;;;1.65;0.90;;;;;;;;;;5133748;27;20022;-68
2023/12/30 01:06:28;;;;;;;1.38;0.90;;;;;;;;;;5133418;27;20072;-67
2023/12/30 01:08:54;;;;;;;3.28;1.05;;;;;;;;;;5133461;27;20065;-68
2023/12/30 01:11:19;;;;;;;2.60;1.00;;;;;;;;;;5133452;27;20098;-67
2023/12/30 01:13:44;;;;;;;2.55;1.17;;;;;;;;;;5133399;27;20101;-67
2023/12/30 01:16:10;;;;;;;1.17;0.80;;;;;;;;;;5133105;27;20015;-67
2023/12/30 01:18:35;;;;;;;4.43;0.90;;;;;;;;;;5133287;27;20051;-68
2023/12/30 01:21:02;;;;;;;7.07;1.00;;;;;;;;;;5133855;27;20406;-68
2023/12/30 01:23:28;;;;;;;2.38;0.80;;;;;;;;;;5115508;27;20072;-67
2023/12/30 01:25:53;;;;;;;4.60;1.02;;;;;;;;;;5133738;27;20023;-67
2023/12/30 01:28:19;;;;;;;1.38;0.90;;;;;;;;;;5133682;27;20500;-68
2023/12/30 01:30:44;;;;;;;2.25;0.70;;;;;;;;;;5133567;27;20023;-68
2023/12/30 01:33:10;;;;;;;1.48;0.80;;;;;;;;;;5133691;27;20019;-68
2023/12/30 01:35:35;;;;;;;2.53;0.90;;;;;;;;;;5133467;27;20020;-68
2023/12/30 01:38:01;;;;;;;3.97;0.80;;;;;;;;;;5133554;27;20476;-67
2023/12/30 01:40:26;;;;;;;1.33;0.80;;;;;;;;;;5133434;27;20035;-67
2023/12/30 01:42:52;;;;;;;2.13;0.80;;;;;;;;;;5133603;27;20023;-68
2023/12/30 01:45:17;;;;;;;2.10;0.80;;;;;;;;;;5133460;27;20373;-68
2023/12/30 01:47:43;;;;;;;3.88;0.80;;;;;;;;;;5133241;28;20058;-67
2023/12/30 01:50:09;;;;;;;1.48;0.88;;;;;;;;;;5133562;28;20430;-68
2023/12/30 01:52:36;;;;;;;2.45;1.25;;;;;;;;;;5133188;27;20027;-67
2023/12/30 01:55:07;;;;;;;1.58;0.77;;;;;;;;;;5136799;27;20023;-67
2023/12/30 01:57:33;;;;;;;2.83;0.90;;;;;;;;;;5137762;27;20063;-67
2023/12/30 02:00:01;;;;;;;1.48;0.70;;;;;;;;;;5118948;27;20031;-68
2023/12/30 02:02:27;;;;;;;1.90;0.80;;;;;;;;;;5137579;27;20516;-68
2023/12/30 02:04:54;;;;;;;1.20;0.80;;;;;;;;;;5137592;27;20031;-68
2023/12/30 02:07:20;;;;;;;1.80;0.85;;;;;;;;;;5137530;27;20034;-67
2023/12/30 02:09:45;;;;;;;4.05;0.90;;;;;;;;;;5137488;27;20023;-68
2023/12/30 02:12:11;;;;;;;1.00;0.70;;;;;;;;;;5137450;27;20023;-68
2023/12/30 02:14:36;;;;;;;1.00;0.70;;;;;;;;;;5137207;27;20109;-68
2023/12/30 02:17:02;;;;;;;4.40;0.90;;;;;;;;;;5137280;27;20035;-68
2023/12/30 02:19:27;;;;;;;1.83;0.80;;;;;;;;;;5137305;27;20035;-68
2023/12/30 02:21:53;;;;;;;3.20;0.80;;;;;;;;;;5137400;27;20071;-67
2023/12/30 02:24:20;;;;;;;3.00;0.90;;;;;;;;;;5137152;27;20019;-68
2023/12/30 02:26:45;;;;;;;1.00;0.70;;;;;;;;;;5137102;27;20030;-68
2023/12/30 02:29:11;;;;;;;1.33;0.85;;;;;;;;;;5136955;27;20023;-68
2023/12/30 02:31:45;;;;;;;2.35;0.70;;;;;;;;;;5136988;27;20382;-68
2023/12/30 02:34:20;;;;;;;1.80;0.80;;;;;;;;;;5137028;27;20027;-68
2023/12/30 02:36:46;;;;;;;0.88;0.70;;;;;;;;;;5137009;27;20027;-68
2023/12/30 02:39:12;;;;;;;1.95;0.68;;;;;;;;;;5136876;27;20034;-67
2023/12/30 02:41:38;;;;;;;3.28;0.95;;;;;;;;;;5136631;27;20492;-67
2023/12/30 02:44:03;;;;;;;2.42;1.00;;;;;;;;;;5136516;27;20488;-68
2023/12/30 02:46:30;;;;;;;1.38;0.70;;;;;;;;;;5136502;27;20023;-67
2023/12/30 02:48:56;;;;;;;3.13;1.23;;;;;;;;;;5136660;27;20533;-67
2023/12/30 02:51:22;;;;;;;1.85;0.70;;;;;;;;;;5136660;27;20038;-68
2023/12/30 02:53:47;;;;;;;1.17;0.80;;;;;;;;;;5136411;27;20486;-67
2023/12/30 02:56:19;;;;;;;1.58;0.80;;;;;;;;;;5136510;27;20027;-67
2023/12/30 02:58:48;;;;;;;1.88;0.80;;;;;;;;;;5136613;27;20029;-68
2023/12/30 03:01:13;;;;;;;2.10;0.77;;;;;;;;;;5136921;27;20366;-67
2023/12/30 03:03:38;;;;;;;1.25;0.80;;;;;;;;;;5136471;27;20049;-68
2023/12/30 03:06:04;;;;;;;2.00;0.90;;;;;;;;;;5135851;27;20023;-67
2023/12/30 03:08:29;;;;;;;1.88;1.38;;;;;;;;;;5136227;27;20417;-67
2023/12/30 03:10:55;;;;;;;4.15;1.08;;;;;;;;;;5136096;27;20068;-67
2023/12/30 03:13:21;;;;;;;1.63;0.80;;;;;;;;;;5136442;27;20470;-68
2023/12/30 03:15:46;;;;;;;2.88;1.08;;;;;;;;;;5136138;27;20046;-68
2023/12/30 03:18:12;;;;;;;1.88;0.80;;;;;;;;;;5136163;27;20015;-67
2023/12/30 03:20:37;;;;;;;3.10;0.90;;;;;;;;;;5136288;27;20023;-68
2023/12/30 03:23:03;;;;;;;6.18;0.90;;;;;;;;;;5135963;27;20023;-68
2023/12/30 03:25:28;;;;;;;4.00;0.93;;;;;;;;;;5135914;27;20369;-67
2023/12/30 03:27:54;;;;;;;1.35;1.00;;;;;;;;;;5136214;27;20027;-68
2023/12/30 03:30:19;;;;;;;2.60;0.85;;;;;;;;;;5135857;27;20027;-68
2023/12/30 03:32:44;;;;;;;4.50;1.10;;;;;;;;;;5135928;27;20035;-68
2023/12/30 03:35:10;;;;;;;2.67;0.88;;;;;;;;;;5135854;27;20027;-67
2023/12/30 03:37:35;;;;;;;4.50;0.73;;;;;;;;;;5135725;27;20477;-67
2023/12/30 03:40:00;;;;;;;3.35;0.90;;;;;;;;;;5135206;27;20110;-68
2023/12/30 03:42:27;;;;;;;3.30;0.80;;;;;;;;;;5135717;27;20075;-67
2023/12/30 03:44:52;;;;;;;1.42;0.68;;;;;;;;;;5135494;27;20058;-67
2023/12/30 03:47:17;;;;;;;3.35;0.98;;;;;;;;;;5135517;27;20462;-68
2023/12/30 03:49:43;;;;;;;5.00;1.88;;;;;;;;;;5135296;27;20030;-68
2023/12/30 03:52:08;;;;;;;2.63;1.00;;;;;;;;;;5135482;27;20019;-67
2023/12/30 03:54:34;;;;;;;3.42;0.90;;;;;;;;;;5135050;27;20508;-68
2023/12/30 03:56:59;;;;;;;1.90;0.88;;;;;;;;;;5135285;27;20069;-68
2023/12/30 03:59:25;;;;;;;2.45;1.00;;;;;;;;;;5135379;27;20019;-67
2023/12/30 04:01:50;;;;;;;6.43;0.80;;;;;;;;;;5135205;27;20114;-68
2023/12/30 04:04:15;;;;;;;5.57;1.30;;;;;;;;;;5135264;27;20027;-67
2023/12/30 04:06:43;;;;;;;2.15;0.88;;;;;;;;;;5135049;27;20023;-67
2023/12/30 04:09:08;;;;;;;2.75;0.80;;;;;;;;;;5134938;27;20467;-67
2023/12/30 04:11:33;;;;;;;3.53;0.90;;;;;;;;;;5135149;27;20019;-68
2023/12/30 04:13:59;;;;;;;2.15;1.00;;;;;;;;;;5135120;27;20043;-68
2023/12/30 04:16:24;;;;;;;2.70;0.80;;;;;;;;;;5133958;27;20031;-67
2023/12/30 04:18:50;;;;;;;1.70;0.70;;;;;;;;;;5135010;27;20375;-67
2023/12/30 04:21:15;;;;;;;3.47;1.00;;;;;;;;;;5134787;27;20408;-67
2023/12/30 04:23:41;;;;;;;1.35;0.80;;;;;;;;;;5134562;27;20031;-67
2023/12/30 04:26:06;;;;;;;2.42;0.98;;;;;;;;;;5134773;27;20031;-68
2023/12/30 04:28:31;;;;;;;2.13;1.17;;;;;;;;;;5134836;27;20026;-68
2023/12/30 04:30:57;;;;;;;1.45;0.80;;;;;;;;;;5134689;27;20044;-68
2023/12/30 04:33:22;;;;;;;5.35;1.00;;;;;;;;;;5134752;27;20485;-68
2023/12/30 04:35:48;;;;;;;1.30;0.90;;;;;;;;;;5134549;27;20023;-67
2023/12/30 04:38:15;;;;;;;2.17;1.10;;;;;;;;;;5134163;27;20079;-67
2023/12/30 04:40:40;;;;;;;4.05;1.00;;;;;;;;;;5134477;27;20051;-67
2023/12/30 04:43:06;;;;;;;2.05;0.90;;;;;;;;;;5134597;27;20113;-67
2023/12/30 04:45:31;;;;;;;2.47;1.00;;;;;;;;;;5134035;27;20466;-67
2023/12/30 04:47:57;;;;;;;3.08;1.08;;;;;;;;;;5134440;27;20369;-68
2023/12/30 04:50:23;;;;;;;3.08;1.02;;;;;;;;;;5134388;27;20073;-68
2023/12/30 04:52:49;;;;;;;3.83;1.00;;;;;;;;;;5133999;27;20047;-67
2023/12/30 04:55:14;;;;;;;3.67;1.15;;;;;;;;;;5134173;27;20027;-67
2023/12/30 04:57:41;;;;;;;3.88;1.35;;;;;;;;;;5134164;27;20481;-68
2023/12/30 05:00:07;;;;;;;5.22;1.23;;;;;;;;;;5134180;27;20023;-67
2023/12/30 05:02:33;;;;;;;3.03;1.10;;;;;;;;;;5115742;27;20033;-68
2023/12/30 05:04:58;;;;;;;5.75;1.10;;;;;;;;;;5134103;27;20106;-68
2023/12/30 05:07:24;;;;;;;2.13;1.08;;;;;;;;;;5133798;27;20469;-67
2023/12/30 05:09:50;;;;;;;2.47;1.15;;;;;;;;;;5133917;27;20019;-68
2023/12/30 05:12:15;;;;;;;3.67;1.00;;;;;;;;;;5133793;27;20098;-68
2023/12/30 05:14:41;;;;;;;5.30;1.42;;;;;;;;;;5133964;27;20071;-68
2023/12/30 05:17:06;;;;;;;2.05;1.02;;;;;;;;;;5133755;27;20034;-68
2023/12/30 05:19:31;;;;;;;1.25;0.85;;;;;;;;;;5133777;27;20027;-68
2023/12/30 05:21:57;;;;;;;2.08;0.93;;;;;;;;;;5133559;27;20574;-67
2023/12/30 05:24:22;;;;;;;1.13;0.80;;;;;;;;;;5133743;27;20031;-67
2023/12/30 05:26:48;;;;;;;0.80;0.70;;;;;;;;;;5133786;27;20026;-68
2023/12/30 05:29:14;;;;;;;2.50;1.23;;;;;;;;;;5133292;27;20024;-67
2023/12/30 05:31:39;;;;;;;2.45;0.90;;;;;;;;;;5133806;27;20373;-68
2023/12/30 05:34:06;;;;;;;1.30;0.80;;;;;;;;;;5133676;27;20027;-68
2023/12/30 05:36:32;;;;;;;1.05;0.82;;;;;;;;;;5133520;27;20039;-67
2023/12/30 05:38:57;;;;;;;4.57;1.52;;;;;;;;;;5133393;27;20481;-67
2023/12/30 05:41:23;;;;;;;1.27;1.00;;;;;;;;;;5133514;27;20065;-68
2023/12/30 05:43:48;;;;;;;0.90;0.70;;;;;;;;;;5133471;28;20468;-68
2023/12/30 05:46:15;;;;;;;3.58;1.02;;;;;;;;;;5133256;28;20023;-68
2023/12/30 05:48:41;;;;;;;2.47;1.00;;;;;;;;;;5133361;28;20092;-68
2023/12/30 05:51:06;;;;;;;0.60;0.60;;;;;;;;;;5133256;28;20443;-68
2023/12/30 05:53:32;;;;;;;4.63;0.98;;;;;;;;;;5133293;28;20043;-68
2023/12/30 05:55:59;;;;;;;1.65;0.60;;;;;;;;;;5133438;28;20355;-67
2023/12/30 05:58:24;;;;;;;1.80;0.70;;;;;;;;;;5133477;28;20079;-68
2023/12/30 06:00:50;;;;;;;0.85;0.77;;;;;;;;;;5133552;28;20334;-67
2023/12/30 06:03:15;;;;;;;5.68;1.00;;;;;;;;;;5133319;28;20030;-67
2023/12/30 06:05:40;;;;;;;2.05;0.82;;;;;;;;;;5133135;28;20023;-67
2023/12/30 06:08:06;;;;;;;1.17;0.70;;;;;;;;;;5133237;28;20027;-67
2023/12/30 06:10:31;;;;;;;1.98;0.80;;;;;;;;;;5133381;28;20019;-68
2023/12/30 06:12:57;;;;;;;4.82;1.05;;;;;;;;;;5133270;28;20045;-67
2023/12/30 06:15:22;;;;;;;1.20;0.82;;;;;;;;;;5133268;28;20027;-67
2023/12/30 06:17:48;;;;;;;5.57;0.93;;;;;;;;;;5133299;28;20034;-67
2023/12/30 06:20:13;;;;;;;1.85;0.70;;;;;;;;;;5132805;28;20026;-67
2023/12/30 06:22:39;;;;;;;0.50;0.50;;;;;;;;;;5133338;28;20031;-67
2023/12/30 06:25:04;;;;;;;2.65;0.80;;;;;;;;;;5133171;28;20020;-67
2023/12/30 06:27:29;;;;;;;2.83;0.80;;;;;;;;;;5133242;28;20035;-67
2023/12/30 06:29:55;;;;;;;3.40;1.00;;;;;;;;;;5133177;28;20020;-67
2023/12/30 06:32:20;;;;;;;0.93;0.80;;;;;;;;;;5133115;28;20027;-67
2023/12/30 06:34:45;;;;;;;1.17;0.80;;;;;;;;;;5132921;28;20051;-67
2023/12/30 06:37:11;;;;;;;1.55;0.77;;;;;;;;;;5132885;28;20083;-67
2023/12/30 06:39:36;;;;;;;1.98;1.02;;;;;;;;;;5133450;27;20020;-67
2023/12/30 06:42:02;;;;;;;3.28;0.93;;;;;;;;;;5136902;27;20026;-67
2023/12/30 06:44:27;;;;;;;1.58;1.33;;;;;;;;;;5136889;27;20030;-67
2023/12/30 06:46:53;;;;;;;2.53;0.90;;;;;;;;;;5136535;27;20126;-67
2023/12/30 06:49:18;;;;;;;2.88;1.13;;;;;;;;;;5136384;27;20019;-67
2023/12/30 06:51:44;;;;;;;5.03;1.40;;;;;;;;;;5136626;27;20031;-67
2023/12/30 06:54:09;;;;;;;2.17;1.00;;;;;;;;;;5136309;27;20077;-67
2023/12/30 06:56:35;;;;;;;1.35;0.90;;;;;;;;;;5136397;27;20110;-67
2023/12/30 06:59:00;;;;;;;1.38;0.70;;;;;;;;;;5136409;27;20131;-67
2023/12/30 07:01:26;;;;;;;2.88;0.98;;;;;;;;;;5136473;27;20023;-67
2023/12/30 07:03:52;;;;;;;0.85;0.70;;;;;;;;;;5136129;27;20037;-68
2023/12/30 07:06:18;;;;;;;2.47;0.80;;;;;;;;;;5136258;27;20111;-67
2023/12/30 07:08:43;;;;;;;1.92;1.00;;;;;;;;;;5136064;27;20023;-67
2023/12/30 07:11:09;;;;;;;2.47;1.08;;;;;;;;;;5136197;27;20510;-67
2023/12/30 07:13:34;;;;;;;3.90;0.90;;;;;;;;;;5136239;27;20378;-67
2023/12/30 07:16:00;;;;;;;1.00;0.82;;;;;;;;;;5135974;27;20128;-67
2023/12/30 07:18:26;;;;;;;1.73;0.98;;;;;;;;;;5135704;27;20023;-67
2023/12/30 07:20:51;;;;;;;2.40;1.00;;;;;;;;;;5135774;27;20102;-67
2023/12/30 07:23:16;;;;;;;2.33;1.67;;;;;;;;;;5135958;27;20073;-67
2023/12/30 07:25:42;;;;;;;3.92;1.20;;;;;;;;;;5135997;27;20027;-67
2023/12/30 07:28:07;;;;;;;2.78;1.00;;;;;;;;;;5135941;27;20465;-67
2023/12/30 07:30:33;;;;;;;1.50;0.90;;;;;;;;;;5135621;27;20094;-67
2023/12/30 07:32:59;;;;;;;1.40;1.00;;;;;;;;;;5135633;27;20024;-67
2023/12/30 07:35:24;;;;;;;2.58;1.20;;;;;;;;;;5135759;27;20064;-67
2023/12/30 07:37:50;;;;;;;1.63;0.80;;;;;;;;;;5135608;27;20389;-67
2023/12/30 07:40:15;;;;;;;2.20;1.02;;;;;;;;;;5135471;27;20341;-67
2023/12/30 07:42:41;;;;;;;3.92;1.30;;;;;;;;;;5135751;27;20367;-67
2023/12/30 07:45:06;;;;;;;3.22;1.00;;;;;;;;;;5135403;27;20363;-67
2023/12/30 07:47:35;;;;;;;1.77;1.05;;;;;;;;;;5134934;27;20038;-67
2023/12/30 07:50:00;;;;;;;3.63;1.23;;;;;;;;;;5135399;27;20024;-67
2023/12/30 07:52:26;;;;;;;2.22;1.10;;;;;;;;;;5135156;27;20022;-67
2023/12/30 07:54:52;;;;;;;4.97;1.63;;;;;;;;;;5135099;27;20039;-67
2023/12/30 07:57:18;;;;;;;9.07;1.20;;;;;;;;;;5135295;27;20051;-67
2023/12/30 07:59:43;;;;;;;2.33;0.90;;;;;;;;;;5135196;27;20389;-67
2023/12/30 08:02:09;;;;;;;5.22;1.02;;;;;;;;;;5134841;27;20019;-67
2023/12/30 08:04:34;;;;;;;5.57;1.20;;;;;;;;;;5135204;27;20450;-67
2023/12/30 08:06:59;;;;;;;3.58;1.20;;;;;;;;;;5135132;27;20031;-67
2023/12/30 08:09:25;;;;;;;6.97;1.50;;;;;;;;;;5135016;27;20019;-68
2023/12/30 08:11:51;;;;;;;5.07;1.00;;;;;;;;;;5134952;27;20023;-67
2023/12/30 08:14:17;;;;;;;2.60;1.20;;;;;;;;;;5134901;27;20023;-67
2023/12/30 08:16:43;;;;;;;4.68;1.20;;;;;;;;;;5134648;27;20473;-67
2023/12/30 08:19:08;;;;;;;7.15;1.20;;;;;;;;;;5134598;27;20034;-67
2023/12/30 08:21:34;;;;;;;3.92;1.17;;;;;;;;;;5133304;27;20419;-67
2023/12/30 08:24:01;;;;;;;1.40;1.10;;;;;;;;;;5134753;27;20016;-67
2023/12/30 08:26:27;;;;;;;5.07;1.27;;;;;;;;;;5134477;27;20031;-67
2023/12/30 08:28:54;;;;;;;3.85;1.17;;;;;;;;;;5134623;27;20102;-68
2023/12/30 08:31:21;;;;;;;7.07;1.17;;;;;;;;;;5134248;27;20385;-68
2023/12/30 08:33:47;;;;;;;2.05;0.90;;;;;;;;;;5134559;27;20027;-67
2023/12/30 08:36:13;;;;;;;6.63;1.30;;;;;;;;;;5134372;27;20027;-67
2023/12/30 08:38:38;;;;;;;1.77;0.88;;;;;;;;;;5134257;27;20030;-67
2023/12/30 08:41:04;;;;;;;4.25;1.58;;;;;;;;;;5134000;27;20022;-67
2023/12/30 08:43:29;;;;;;;2.63;1.17;;;;;;;;;;5134241;27;20339;-67
2023/12/30 08:45:55;;;;;;;4.95;1.40;;;;;;;;;;5133658;27;20080;-67
2023/12/30 08:48:20;;;;;;;4.50;1.27;;;;;;;;;;5134005;27;20072;-67
2023/12/30 08:50:47;;;;;;;9.05;1.60;;;;;;;;;;5134038;27;20019;-67
2023/12/30 08:53:13;;;;;;;5.57;1.38;;;;;;;;;;5133803;27;20082;-68
2023/12/30 08:55:38;;;;;;;1.98;0.88;;;;;;;;;;5134049;27;20027;-67
2023/12/30 08:58:05;;;;;;;1.65;1.00;;;;;;;;;;5133769;27;20047;-67
2023/12/30 09:00:30;;;;;;;3.65;1.52;;;;;;;;;;5133824;27;20030;-68
2023/12/30 09:02:56;;;;;;;4.13;1.13;;;;;;;;;;5133263;27;20445;-68
2023/12/30 09:05:21;;;;;;;3.47;1.15;;;;;;;;;;5133856;27;20031;-67
2023/12/30 09:07:48;;;;;;;6.07;1.52;;;;;;;;;;5133823;27;20064;-67
2023/12/30 09:10:15;;;;;;;7.03;1.25;;;;;;;;;;5133677;27;20107;-67
2023/12/30 09:12:40;;;;;;;3.65;1.30;;;;;;;;;;5133865;27;20019;-67
2023/12/30 09:15:06;;;;;;;3.55;0.98;;;;;;;;;;5133524;27;20019;-67
2023/12/30 09:17:31;;;;;;;3.55;1.48;;;;;;;;;;5133583;27;20027;-68
2023/12/30 09:19:57;;;;;;;3.60;1.20;;;;;;;;;;5133606;27;20023;-68
2023/12/30 09:22:22;;;;;;;4.35;1.35;;;;;;;;;;5133521;27;20473;-67
2023/12/30 09:24:48;;;;;;;3.95;1.30;;;;;;;;;;5133342;27;20019;-67
2023/12/30 09:27:13;;;;;;;3.33;1.23;;;;;;;;;;5133510;27;20015;-67
2023/12/30 09:29:39;;;;;;;2.92;1.13;;;;;;;;;;5133371;27;20027;-67
2023/12/30 09:32:04;;;;;;;2.95;1.00;;;;;;;;;;5133627;27;20030;-68
2023/12/30 09:34:30;;;;;;;4.05;1.02;;;;;;;;;;5133598;27;20355;-68
2023/12/30 09:36:55;;;;;;;4.43;1.20;;;;;;;;;;5119653;27;20359;-67
2023/12/30 09:39:21;;;;;;;7.88;1.33;;;;;;;;;;5126129;27;20311;-67
2023/12/30 09:41:46;;;;;;;3.35;1.00;;;;;;;;;;5133093;27;20024;-67
2023/12/30 09:44:12;;;;;;;5.50;1.13;;;;;;;;;;5133095;28;20027;-67
2023/12/30 09:46:39;;;;;;;3.28;1.13;;;;;;;;;;5132997;28;20382;-67
2023/12/30 09:49:06;;;;;;;5.40;1.40;;;;;;;;;;5133064;28;20053;-68
2023/12/30 09:51:32;;;;;;;4.43;1.30;;;;;;;;;;5133344;28;20016;-68
2023/12/30 09:53:58;;;;;;;2.47;1.00;;;;;;;;;;5133094;28;20447;-68
2023/12/30 09:56:25;;;;;;;6.28;1.20;;;;;;;;;;5133188;28;20039;-67
2023/12/30 09:58:50;;;;;;;6.55;1.80;;;;;;;;;;5133006;28;20477;-68
2023/12/30 10:01:16;;;;;;;8.45;1.60;;;;;;;;;;5133060;28;20031;-68
2023/12/30 10:03:42;;;;;;;4.88;1.45;;;;;;;;;;5132954;28;20034;-69
2023/12/30 10:06:12;;;;;;;4.20;1.40;;;;;;;;;;5133162;28;20019;-68
2023/12/30 10:08:37;;;;;;;4.13;1.35;;;;;;;;;;5133308;28;20029;-67
2023/12/30 10:11:08;;;;;;;7.82;1.63;;;;;;;;;;5133033;28;20043;-68
2023/12/30 10:13:36;;;;;;;2.10;1.20;;;;;;;;;;5132979;27;20030;-67
2023/12/30 10:16:04;;;;;;;5.30;1.33;;;;;;;;;;5117805;27;20023;-67
2023/12/30 10:18:31;;;;;;;3.08;0.90;;;;;;;;;;5137109;27;20037;-67
2023/12/30 10:20:58;;;;;;;5.30;1.13;;;;;;;;;;5118520;27;20051;-67
2023/12/30 10:23:25;;;;;;;3.90;1.40;;;;;;;;;;5137010;27;20088;-67
2023/12/30 10:25:52;;;;;;;5.70;1.27;;;;;;;;;;5136846;27;20050;-67
2023/12/30 10:28:17;;;;;;;3.45;1.23;;;;;;;;;;5136605;27;20023;-67
2023/12/30 10:30:43;;;;;;;3.47;1.02;;;;;;;;;;5136897;27;20041;-69
2023/12/30 10:33:15;;;;;;;6.47;1.50;;;;;;;;;;5136665;27;20015;-67
2023/12/30 10:35:44;;;;;;;8.32;1.25;;;;;;;;;;5118440;27;20512;-68
2023/12/30 10:38:13;;;;;;;3.22;1.00;;;;;;;;;;5136451;27;20029;-67
2023/12/30 10:40:39;;;;;;;6.35;1.30;;;;;;;;;;5136506;27;20105;-67
2023/12/30 10:43:06;;;;;;;8.02;2.13;;;;;;;;;;5136634;27;20556;-67
2023/12/30 10:45:31;;;;;;;8.07;1.52;;;;;;;;;;5136382;27;20023;-67
2023/12/30 10:47:59;;;;;;;3.85;0.93;;;;;;;;;;5136343;27;20079;-66
2023/12/30 10:50:26;;;;;;;3.47;1.33;;;;;;;;;;5136240;27;20027;-67
2023/12/30 10:53:03;;;;;;;4.78;1.20;;;;;;;;;;5136147;27;20149;-67
2023/12/30 10:55:33;;;;;;;4.18;1.17;;;;;;;;;;5136256;27;20032;-67
2023/12/30 10:58:06;;;;;;;6.05;1.13;;;;;;;;;;5136288;27;20096;-67
2023/12/30 11:00:35;;;;;;;3.10;1.10;;;;;;;;;;5136359;27;20121;-68
2023/12/30 11:03:02;;;;;;;3.75;1.35;;;;;;;;;;5136227;27;20080;-67
2023/12/30 11:05:34;;;;;;;6.82;1.20;;;;;;;;;;5135932;27;20020;-67
2023/12/30 11:07:59;;;;;;;3.60;1.17;;;;;;;;;;5136284;27;20023;-67
2023/12/30 11:10:26;;;;;;;5.97;1.60;;;;;;;;;;5135765;27;20358;-68
2023/12/30 11:12:53;;;;;;;6.43;1.20;;;;;;;;;;5136003;27;20037;-67
2023/12/30 11:15:31;;;;;;;7.57;1.63;;;;;;;;;;5136015;27;20113;-67
2023/12/30 11:18:01;;;;;;;5.72;1.20;;;;;;;;;;5135758;27;20080;-68
2023/12/30 11:20:30;;;;;;;4.97;1.30;;;;;;;;;;5135933;27;20023;-68
2023/12/30 11:23:01;;;;;;;8.32;1.20;;;;;;;;;;5135819;27;20474;-68
2023/12/30 11:25:35;;;;;;;3.42;0.98;;;;;;;;;;5134814;27;20027;-68
2023/12/30 11:28:13;;;;;;;4.22;1.10;;;;;;;;;;5135726;27;20019;-68
2023/12/30 11:30:39;;;;;;;4.32;1.30;;;;;;;;;;5135677;27;20523;-68
2023/12/30 11:33:05;;;;;;;3.80;1.10;;;;;;;;;;5135376;27;20027;-67
2023/12/30 11:35:31;;;;;;;3.92;1.10;;;;;;;;;;5135546;27;20076;-68
2023/12/30 11:37:57;;;;;;;4.25;1.30;;;;;;;;;;5136991;27;20381;-66
2023/12/30 11:40:24;;;;;;;4.47;1.13;;;;;;;;;;5155803;27;20181;-66
2023/12/30 11:42:50;;;;;;;4.40;1.35;;;;;;;;;;5156006;27;20511;-67
2023/12/30 11:45:16;;;;;;;6.00;1.48;;;;;;;;;;5144568;27;20054;-67
2023/12/30 11:47:44;;;;;;;7.20;1.70;;;;;;;;;;5134895;27;20027;-68
2023/12/30 11:50:12;;;;;;;1.67;0.98;;;;;;;;;;5134973;27;20114;-68
2023/12/30 11:52:37;;;;;;;9.18;1.67;;;;;;;;;;5135297;27;20023;-68
2023/12/30 11:55:03;;;;;;;14.52;1.70;;;;;;;;;;5134972;27;20199;-68
2023/12/30 11:57:33;;;;;;;5.03;1.30;;;;;;;;;;5134870;27;20039;-68
2023/12/30 11:59:58;;;;;;;6.55;1.95;;;;;;;;;;5124599;27;20032;-68
2023/12/30 12:02:24;;;;;;;7.22;1.27;;;;;;;;;;5134564;27;20026;-67
2023/12/30 12:04:50;;;;;;;5.28;1.38;;;;;;;;;;5134825;27;20027;-66
2023/12/30 12:07:16;;;;;;;3.00;1.25;;;;;;;;;;5134339;27;20389;-69
2023/12/30 12:09:43;;;;;;;7.88;1.33;;;;;;;;;;5134385;27;20021;-67
2023/12/30 12:12:10;;;;;;;2.67;0.90;;;;;;;;;;5134665;27;20473;-67
2023/12/30 12:14:35;;;;;;;5.28;1.48;;;;;;;;;;5134528;27;20023;-68
2023/12/30 12:17:07;;;;;;;4.35;1.00;;;;;;;;;;5102502;27;20067;-67
2023/12/30 12:19:35;;;;;;;3.05;1.27;;;;;;;;;;5134520;27;20020;-68
2023/12/30 12:22:01;;;;;;;5.22;1.10;;;;;;;;;;5134066;27;20041;-67
2023/12/30 12:24:26;;;;;;;6.18;1.48;;;;;;;;;;5134345;27;20019;-67
2023/12/30 12:26:52;;;;;;;6.85;1.55;;;;;;;;;;5134175;27;20462;-67
2023/12/30 12:29:18;;;;;;;6.35;1.17;;;;;;;;;;5134158;27;20023;-68
2023/12/30 12:31:47;;;;;;;5.07;1.20;;;;;;;;;;5133995;27;20114;-67
2023/12/30 12:34:25;;;;;;;4.68;1.48;;;;;;;;;;5113713;28;20095;-67
2023/12/30 12:36:51;;;;;;;4.20;1.60;;;;;;;;;;5113139;28;20449;-67
2023/12/30 12:39:17;;;;;;;6.38;1.50;;;;;;;;;;5126657;27;20054;-67
2023/12/30 12:41:44;;;;;;;5.97;0.95;;;;;;;;;;5133844;27;20449;-67
2023/12/30 12:44:09;;;;;;;7.15;1.23;;;;;;;;;;5133844;27;20059;-67
2023/12/30 12:46:35;;;;;;;3.78;1.40;;;;;;;;;;5133904;27;20503;-67
2023/12/30 12:49:00;;;;;;;3.83;1.30;;;;;;;;;;5133639;27;20450;-68
2023/12/30 12:51:32;;;;;;;4.50;1.55;;;;;;;;;;5133816;27;20122;-67
2023/12/30 12:53:57;;;;;;;3.22;0.90;;;;;;;;;;5133598;27;20538;-67
2023/12/30 12:56:22;;;;;;;8.32;1.65;;;;;;;;;;5133982;27;20034;-67
2023/12/30 12:58:49;;;;;;;4.00;0.80;;;;;;;;;;5133797;27;20386;-68
2023/12/30 13:01:14;;;;;;;2.97;1.00;;;;;;;;;;5133483;27;20507;-68
2023/12/30 13:03:40;;;;;;;3.33;1.02;;;;;;;;;;5133717;27;20027;-67
2023/12/30 13:06:12;;;;;;;2.42;0.93;;;;;;;;;;5131522;27;20039;-67
2023/12/30 13:08:38;;;;;;;4.97;1.15;;;;;;;;;;5122709;27;20129;-67
2023/12/30 13:11:04;;;;;;;5.50;2.50;;;;;;;;;;5132688;27;20541;-67
2023/12/30 13:13:29;;;;;;;6.57;1.23;;;;;;;;;;5132595;27;20015;-67
2023/12/30 13:15:58;;;;;;;4.03;1.52;;;;;;;;;;5132745;27;20015;-67
2023/12/30 13:18:24;;;;;;;8.43;1.83;;;;;;;;;;5133276;27;20038;-68
2023/12/30 13:20:49;;;;;;;7.50;1.75;;;;;;;;;;5132991;27;20049;-67
2023/12/30 13:23:15;;;;;;;4.50;1.48;;;;;;;;;;5133132;27;20062;-67
2023/12/30 13:25:41;;;;;;;5.82;2.20;;;;;;;;;;5133407;27;20054;-67
2023/12/30 13:28:07;;;;;;;4.88;1.40;;;;;;;;;;5133247;27;20023;-68
2023/12/30 13:30:32;;;;;;;6.30;1.67;;;;;;;;;;5133374;27;20408;-68
2023/12/30 13:33:00;;;;;;;8.35;1.85;;;;;;;;;;5133314;27;20461;-67
2023/12/30 13:35:29;;;;;;;6.90;1.40;;;;;;;;;;5132908;27;20027;-67
2023/12/30 13:37:55;;;;;;;3.45;1.40;;;;;;;;;;5132589;27;20140;-67
2023/12/30 13:40:21;;;;;;;4.53;1.67;;;;;;;;;;5133183;27;20027;-67
2023/12/30 13:42:49;;;;;;;7.00;1.50;;;;;;;;;;5133210;27;20028;-67
2023/12/30 13:45:14;;;;;;;5.32;1.30;;;;;;;;;;5132501;27;20077;-67
2023/12/30 13:50:31;;;;;;;3.65;1.45;;;;;;;;;;5138869;27;20031;-67
2023/12/30 13:53:00;;;;;;;4.60;1.10;;;;;;;;;;5139291;27;20047;-68
2023/12/30 13:55:31;;;;;;;5.05;1.92;;;;;;;;;;5139921;27;20110;-68
2023/12/30 13:57:57;;;;;;;8.93;2.97;;;;;;;;;;5105364;27;20465;-67
2023/12/30 14:00:23;;;;;;;7.05;2.50;;;;;;;;;;5140070;27;20072;-67
2023/12/30 14:02:49;;;;;;;5.85;2.15;;;;;;;;;;5139668;27;20046;-68
2023/12/30 14:05:20;;;;;;;6.15;2.13;;;;;;;;;;5139860;27;20019;-68
2023/12/30 14:07:45;;;;;;;7.63;2.95;;;;;;;;;;5123720;27;20489;-67
2023/12/30 14:10:12;;;;;;;8.60;3.58;;;;;;;;;;5119199;28;20027;-68
2023/12/30 14:12:40;;;;;;;10.35;4.40;;;;;;;;;;5118923;28;20031;-67
2023/12/30 14:15:12;;;;;;;12.60;4.22;;;;;;;;;;5119049;28;20046;-67
2023/12/30 14:17:38;;;;;;;5.25;2.30;;;;;;;;;;5119004;28;20036;-67
2023/12/30 14:20:04;;;;;;;4.53;2.05;;;;;;;;;;5118800;28;20848;-68
2023/12/30 14:22:31;;;;;;;7.95;3.65;;;;;;;;;;5118871;28;20161;-67
2023/12/30 14:24:57;;;;;;;15.30;5.97;;;;;;;;;;5118988;28;20073;-67
2023/12/30 14:27:22;;;;;;;13.88;5.65;;;;;;;;;;5118970;28;20036;-67
2023/12/30 14:29:51;;;;;;;8.45;5.18;;;;;;;;;;5118951;27;20024;-68
2023/12/30 14:32:17;;;;;;;6.07;2.67;;;;;;;;;;5139539;27;20453;-68
2023/12/30 14:34:42;;;;;;;4.15;1.77;;;;;;;;;;5139575;27;20023;-67
2023/12/30 14:37:09;;;;;;;5.45;2.47;;;;;;;;;;5139442;27;20518;-68
2023/12/30 14:39:34;;;;;;;8.88;2.30;;;;;;;;;;5139328;27;20439;-66